sensor_id;sensor_type;location;lat;lon;timestamp;temperature;humidity
12811;DHT22;6470;47.654;7.896;2022-11-04T00:03:52;10.70;99.90
12811;DHT22;6470;47.654;7.896;2022-11-04T00:06:18;10.70;99.90
12811;DHT22;6470;47.654;7.896;2022-11-04T00:09:04;10.90;99.90
12811;DHT22;6470;47.654;7.896;2022-11-04T00:11:30;10.30;99.90
12811;DHT22;6470;47.654;7.896;2022-11-04T00:14:15;10.10;99.90
12811;DHT22;6470;47.654;7.896;2022-11-04T00:16:42;9.60;99.90
12811;DHT22;6470;47.654;7.896;2022-11-04T00:19:26;10.60;99.90
12811;DHT22;6470;47.654;7.896;2022-11-04T00:24:37;10.60;99.90
12811;DHT22;6470;47.654;7.896;2022-11-04T00:27:21;10.60;99.90
12811;DHT22;6470;47.654;7.896;2022-11-04T00:30:08;9.80;99.90
12811;DHT22;6470;47.654;7.896;2022-11-04T00:35:19;10.60;99.90
12811;DHT22;6470;47.654;7.896;2022-11-04T00:37:45;10.40;99.90
12811;DHT22;6470;47.654;7.896;2022-11-04T00:40:13;9.50;99.90
12811;DHT22;6470;47.654;7.896;2022-11-04T00:42:39;10.20;99.90
12811;DHT22;6470;47.654;7.896;2022-11-04T00:45:07;9.80;99.90
12811;DHT22;6470;47.654;7.896;2022-11-04T00:47:33;8.90;99.90
12811;DHT22;6470;47.654;7.896;2022-11-04T00:49:58;9.80;99.90
12811;DHT22;6470;47.654;7.896;2022-11-04T00:52:24;9.60;99.90
12811;DHT22;6470;47.654;7.896;2022-11-04T00:54:50;9.50;99.90
12811;DHT22;6470;47.654;7.896;2022-11-04T00:57:15;9.40;99.90
12811;DHT22;6470;47.654;7.896;2022-11-04T01:02:10;9.80;99.90
12811;DHT22;6470;47.654;7.896;2022-11-04T01:04:37;10.00;99.90
12811;DHT22;6470;47.654;7.896;2022-11-04T01:07:03;9.30;99.90
12811;DHT22;6470;47.654;7.896;2022-11-04T01:09:28;9.00;99.90
12811;DHT22;6470;47.654;7.896;2022-11-04T01:14:21;9.60;99.90
12811;DHT22;6470;47.654;7.896;2022-11-04T01:16:48;10.10;99.90
12811;DHT22;6470;47.654;7.896;2022-11-04T01:24:06;10.10;99.90
12811;DHT22;6470;47.654;7.896;2022-11-04T01:26:32;8.80;99.90
12811;DHT22;6470;47.654;7.896;2022-11-04T01:28:58;10.10;99.90
12811;DHT22;6470;47.654;7.896;2022-11-04T01:31:29;9.40;99.90
12811;DHT22;6470;47.654;7.896;2022-11-04T01:33:57;9.00;99.90
12811;DHT22;6470;47.654;7.896;2022-11-04T01:38:49;9.10;99.90
12811;DHT22;6470;47.654;7.896;2022-11-04T01:41:21;9.00;99.90
12811;DHT22;6470;47.654;7.896;2022-11-04T01:43:54;9.90;99.90
12811;DHT22;6470;47.654;7.896;2022-11-04T01:48:47;9.50;99.90
12811;DHT22;6470;47.654;7.896;2022-11-04T01:51:13;9.50;99.90
12811;DHT22;6470;47.654;7.896;2022-11-04T01:53:40;9.60;99.90
12811;DHT22;6470;47.654;7.896;2022-11-04T01:56:11;9.70;99.90
12811;DHT22;6470;47.654;7.896;2022-11-04T01:58:46;9.10;99.90
12811;DHT22;6470;47.654;7.896;2022-11-04T02:01:13;10.20;99.90
12811;DHT22;6470;47.654;7.896;2022-11-04T02:03:48;9.90;99.90
12811;DHT22;6470;47.654;7.896;2022-11-04T02:06:16;9.50;99.90
12811;DHT22;6470;47.654;7.896;2022-11-04T02:08:44;10.00;99.90
12811;DHT22;6470;47.654;7.896;2022-11-04T02:11:11;9.80;99.90
12811;DHT22;6470;47.654;7.896;2022-11-04T02:16:44;9.80;99.90
12811;DHT22;6470;47.654;7.896;2022-11-04T02:27:04;9.70;99.90
12811;DHT22;6470;47.654;7.896;2022-11-04T02:32:48;9.00;99.90
12811;DHT22;6470;47.654;7.896;2022-11-04T02:38:14;9.80;99.90
12811;DHT22;6470;47.654;7.896;2022-11-04T02:41:00;9.70;99.90
12811;DHT22;6470;47.654;7.896;2022-11-04T02:46:37;9.60;99.90
12811;DHT22;6470;47.654;7.896;2022-11-04T02:49:09;8.60;99.90
12811;DHT22;6470;47.654;7.896;2022-11-04T02:51:42;9.70;99.90
12811;DHT22;6470;47.654;7.896;2022-11-04T02:54:17;9.50;99.90
12811;DHT22;6470;47.654;7.896;2022-11-04T02:56:49;9.70;99.90
12811;DHT22;6470;47.654;7.896;2022-11-04T02:59:49;9.60;99.90
12811;DHT22;6470;47.654;7.896;2022-11-04T03:02:21;9.50;99.90
12811;DHT22;6470;47.654;7.896;2022-11-04T03:04:50;9.00;99.90
12811;DHT22;6470;47.654;7.896;2022-11-04T03:07:24;8.50;99.90
12811;DHT22;6470;47.654;7.896;2022-11-04T03:09:55;9.00;99.90
12811;DHT22;6470;47.654;7.896;2022-11-04T03:12:26;8.60;99.90
12811;DHT22;6470;47.654;7.896;2022-11-04T03:15:02;9.60;99.90
12811;DHT22;6470;47.654;7.896;2022-11-04T03:18:16;9.40;99.90
12811;DHT22;6470;47.654;7.896;2022-11-04T03:20:24;7.20;99.90
12811;DHT22;6470;47.654;7.896;2022-11-04T03:22:53;8.70;99.90
12811;DHT22;6470;47.654;7.896;2022-11-04T03:25:27;8.90;99.90
12811;DHT22;6470;47.654;7.896;2022-11-04T03:31:00;9.80;99.90
12811;DHT22;6470;47.654;7.896;2022-11-04T03:35:58;7.20;99.90
12811;DHT22;6470;47.654;7.896;2022-11-04T03:38:24;9.50;99.90
12811;DHT22;6470;47.654;7.896;2022-11-04T03:40:50;9.00;99.90
12811;DHT22;6470;47.654;7.896;2022-11-04T03:43:27;8.60;99.90
12811;DHT22;6470;47.654;7.896;2022-11-04T03:45:54;8.90;99.90
12811;DHT22;6470;47.654;7.896;2022-11-04T03:48:21;9.00;99.90
12811;DHT22;6470;47.654;7.896;2022-11-04T03:50:48;8.80;99.90
12811;DHT22;6470;47.654;7.896;2022-11-04T03:53:22;8.80;99.90
12811;DHT22;6470;47.654;7.896;2022-11-04T04:01:23;8.60;99.90
12811;DHT22;6470;47.654;7.896;2022-11-04T04:03:51;9.60;99.90
12811;DHT22;6470;47.654;7.896;2022-11-04T04:06:22;9.00;99.90
12811;DHT22;6470;47.654;7.896;2022-11-04T04:08:54;7.00;99.90
12811;DHT22;6470;47.654;7.896;2022-11-04T04:16:28;9.10;99.90
12811;DHT22;6470;47.654;7.896;2022-11-04T04:19:07;8.70;99.90
12811;DHT22;6470;47.654;7.896;2022-11-04T04:21:41;8.90;99.90
12811;DHT22;6470;47.654;7.896;2022-11-04T04:24:09;6.80;99.90
12811;DHT22;6470;47.654;7.896;2022-11-04T04:26:55;8.10;99.90
12811;DHT22;6470;47.654;7.896;2022-11-04T04:29:42;8.60;99.90
12811;DHT22;6470;47.654;7.896;2022-11-04T04:32:09;8.40;99.90
12811;DHT22;6470;47.654;7.896;2022-11-04T04:34:35;8.40;99.90
12811;DHT22;6470;47.654;7.896;2022-11-04T04:37:06;8.40;99.90
12811;DHT22;6470;47.654;7.896;2022-11-04T04:39:42;8.40;99.90
12811;DHT22;6470;47.654;7.896;2022-11-04T04:42:35;8.70;99.90
12811;DHT22;6470;47.654;7.896;2022-11-04T04:47:48;8.60;99.90
12811;DHT22;6470;47.654;7.896;2022-11-04T04:50:16;8.20;99.90
12811;DHT22;6470;47.654;7.896;2022-11-04T04:52:48;8.10;99.90
12811;DHT22;6470;47.654;7.896;2022-11-04T04:55:14;7.90;99.90
12811;DHT22;6470;47.654;7.896;2022-11-04T05:00:07;5.00;99.90
12811;DHT22;6470;47.654;7.896;2022-11-04T05:05:00;7.30;99.90
12811;DHT22;6470;47.654;7.896;2022-11-04T05:07:26;7.20;99.90
12811;DHT22;6470;47.654;7.896;2022-11-04T05:09:52;7.50;99.90
12811;DHT22;6470;47.654;7.896;2022-11-04T05:12:18;5.00;99.90
12811;DHT22;6470;47.654;7.896;2022-11-04T05:14:43;7.40;99.90
12811;DHT22;6470;47.654;7.896;2022-11-04T05:17:09;8.10;99.90
12811;DHT22;6470;47.654;7.896;2022-11-04T05:19:35;7.70;99.90
12811;DHT22;6470;47.654;7.896;2022-11-04T05:22:00;7.60;99.90
12811;DHT22;6470;47.654;7.896;2022-11-04T05:24:27;7.10;99.90
12811;DHT22;6470;47.654;7.896;2022-11-04T05:26:52;8.20;99.90
12811;DHT22;6470;47.654;7.896;2022-11-04T05:29:18;7.80;99.90
12811;DHT22;6470;47.654;7.896;2022-11-04T05:31:44;8.70;99.90
12811;DHT22;6470;47.654;7.896;2022-11-04T05:34:10;7.70;99.90
12811;DHT22;6470;47.654;7.896;2022-11-04T05:36:37;7.60;99.90
12811;DHT22;6470;47.654;7.896;2022-11-04T05:39:03;7.20;99.90
12811;DHT22;6470;47.654;7.896;2022-11-04T05:41:30;4.20;99.90
12811;DHT22;6470;47.654;7.896;2022-11-04T05:43:58;7.50;99.90
12811;DHT22;6470;47.654;7.896;2022-11-04T05:46:24;7.30;99.90
12811;DHT22;6470;47.654;7.896;2022-11-04T05:48:50;7.50;99.90
12811;DHT22;6470;47.654;7.896;2022-11-04T05:51:18;8.80;99.90
12811;DHT22;6470;47.654;7.896;2022-11-04T05:53:44;7.90;99.90
12811;DHT22;6470;47.654;7.896;2022-11-04T05:58:36;7.40;99.90
12811;DHT22;6470;47.654;7.896;2022-11-04T06:03:46;7.00;99.90
12811;DHT22;6470;47.654;7.896;2022-11-04T06:06:12;7.80;99.90
12811;DHT22;6470;47.654;7.896;2022-11-04T06:08:38;7.60;99.90
12811;DHT22;6470;47.654;7.896;2022-11-04T06:11:03;7.60;99.90
12811;DHT22;6470;47.654;7.896;2022-11-04T06:13:30;6.70;99.90
12811;DHT22;6470;47.654;7.896;2022-11-04T06:15:56;7.20;99.90
12811;DHT22;6470;47.654;7.896;2022-11-04T06:18:21;6.90;99.90
12811;DHT22;6470;47.654;7.896;2022-11-04T06:23:13;7.10;99.90
12811;DHT22;6470;47.654;7.896;2022-11-04T06:25:39;7.40;99.90
12811;DHT22;6470;47.654;7.896;2022-11-04T06:28:04;4.70;99.90
12811;DHT22;6470;47.654;7.896;2022-11-04T06:30:30;7.70;99.90
12811;DHT22;6470;47.654;7.896;2022-11-04T06:32:56;8.20;99.90
12811;DHT22;6470;47.654;7.896;2022-11-04T06:35:21;7.50;99.90
12811;DHT22;6470;47.654;7.896;2022-11-04T06:37:47;7.10;99.90
12811;DHT22;6470;47.654;7.896;2022-11-04T06:40:13;4.50;99.90
12811;DHT22;6470;47.654;7.896;2022-11-04T06:42:38;7.50;99.90
12811;DHT22;6470;47.654;7.896;2022-11-04T06:45:04;7.30;99.90
12811;DHT22;6470;47.654;7.896;2022-11-04T06:47:30;7.90;99.90
12811;DHT22;6470;47.654;7.896;2022-11-04T06:49:56;7.70;99.90
12811;DHT22;6470;47.654;7.896;2022-11-04T06:52:21;7.40;99.90
12811;DHT22;6470;47.654;7.896;2022-11-04T06:54:47;7.80;99.90
12811;DHT22;6470;47.654;7.896;2022-11-04T06:57:13;4.70;99.90
12811;DHT22;6470;47.654;7.896;2022-11-04T06:59:39;7.40;99.90
12811;DHT22;6470;47.654;7.896;2022-11-04T07:02:04;8.10;99.90
12811;DHT22;6470;47.654;7.896;2022-11-04T07:04:30;7.90;99.90
12811;DHT22;6470;47.654;7.896;2022-11-04T07:06:56;7.60;99.90
12811;DHT22;6470;47.654;7.896;2022-11-04T07:11:47;8.40;99.90
12811;DHT22;6470;47.654;7.896;2022-11-04T07:14:13;8.20;99.90
12811;DHT22;6470;47.654;7.896;2022-11-04T07:16:39;8.20;99.90
12811;DHT22;6470;47.654;7.896;2022-11-04T07:19:05;7.90;99.90
12811;DHT22;6470;47.654;7.896;2022-11-04T07:21:31;7.90;99.90
12811;DHT22;6470;47.654;7.896;2022-11-04T07:23:57;8.30;99.90
12811;DHT22;6470;47.654;7.896;2022-11-04T07:26:22;8.40;99.90
12811;DHT22;6470;47.654;7.896;2022-11-04T07:28:48;8.30;99.90
12811;DHT22;6470;47.654;7.896;2022-11-04T07:33:42;8.40;99.90
12811;DHT22;6470;47.654;7.896;2022-11-04T07:36:10;7.70;99.90
12811;DHT22;6470;47.654;7.896;2022-11-04T07:38:37;7.60;99.90
12811;DHT22;6470;47.654;7.896;2022-11-04T07:41:02;5.30;99.90
12811;DHT22;6470;47.654;7.896;2022-11-04T07:43:29;8.30;99.90
12811;DHT22;6470;47.654;7.896;2022-11-04T07:46:09;8.60;99.90
12811;DHT22;6470;47.654;7.896;2022-11-04T07:48:35;6.80;99.90
12811;DHT22;6470;47.654;7.896;2022-11-04T07:51:02;8.40;99.90
12811;DHT22;6470;47.654;7.896;2022-11-04T07:53:29;8.40;99.90
12811;DHT22;6470;47.654;7.896;2022-11-04T07:55:55;8.70;99.90
12811;DHT22;6470;47.654;7.896;2022-11-04T07:58:22;7.40;99.90
12811;DHT22;6470;47.654;7.896;2022-11-04T08:00:48;8.90;99.90
12811;DHT22;6470;47.654;7.896;2022-11-04T08:03:14;8.70;99.90
12811;DHT22;6470;47.654;7.896;2022-11-04T08:05:40;8.40;99.90
12811;DHT22;6470;47.654;7.896;2022-11-04T08:08:06;8.90;99.90
12811;DHT22;6470;47.654;7.896;2022-11-04T08:10:32;8.70;99.90
12811;DHT22;6470;47.654;7.896;2022-11-04T08:12:58;9.00;99.90
12811;DHT22;6470;47.654;7.896;2022-11-04T08:17:49;9.70;99.90
12811;DHT22;6470;47.654;7.896;2022-11-04T08:22:42;6.90;99.90
12811;DHT22;6470;47.654;7.896;2022-11-04T08:27:37;7.10;99.90
12811;DHT22;6470;47.654;7.896;2022-11-04T08:30:03;8.80;99.90
12811;DHT22;6470;47.654;7.896;2022-11-04T08:34:55;9.00;99.90
12811;DHT22;6470;47.654;7.896;2022-11-04T08:37:20;8.70;99.90
12811;DHT22;6470;47.654;7.896;2022-11-04T08:42:12;9.40;99.90
12811;DHT22;6470;47.654;7.896;2022-11-04T08:47:04;9.70;99.90
12811;DHT22;6470;47.654;7.896;2022-11-04T08:54:25;10.00;99.90
12811;DHT22;6470;47.654;7.896;2022-11-04T08:56:51;10.10;99.90
12811;DHT22;6470;47.654;7.896;2022-11-04T09:04:10;10.50;99.90
12811;DHT22;6470;47.654;7.896;2022-11-04T09:06:39;10.40;99.90
12811;DHT22;6470;47.654;7.896;2022-11-04T09:09:07;10.70;99.90
12811;DHT22;6470;47.654;7.896;2022-11-04T09:11:37;10.30;99.90
12811;DHT22;6470;47.654;7.896;2022-11-04T09:14:03;11.50;99.90
12811;DHT22;6470;47.654;7.896;2022-11-04T09:16:32;12.40;99.90
12811;DHT22;6470;47.654;7.896;2022-11-04T09:18:58;12.00;99.90
12811;DHT22;6470;47.654;7.896;2022-11-04T09:21:25;10.90;99.90
12811;DHT22;6470;47.654;7.896;2022-11-04T09:23:52;12.30;99.90
12811;DHT22;6470;47.654;7.896;2022-11-04T09:26:18;12.10;99.90
12811;DHT22;6470;47.654;7.896;2022-11-04T09:28:44;12.50;99.90
12811;DHT22;6470;47.654;7.896;2022-11-04T09:31:13;11.90;99.90
12811;DHT22;6470;47.654;7.896;2022-11-04T09:33:39;12.20;99.90
12811;DHT22;6470;47.654;7.896;2022-11-04T09:36:05;11.80;99.90
12811;DHT22;6470;47.654;7.896;2022-11-04T09:38:32;12.00;99.90
12811;DHT22;6470;47.654;7.896;2022-11-04T09:40:59;11.90;99.90
12811;DHT22;6470;47.654;7.896;2022-11-04T09:43:33;11.50;99.90
12811;DHT22;6470;47.654;7.896;2022-11-04T09:46:01;11.80;99.90
12811;DHT22;6470;47.654;7.896;2022-11-04T09:48:33;10.10;99.90
12811;DHT22;6470;47.654;7.896;2022-11-04T09:51:04;11.70;99.90
12811;DHT22;6470;47.654;7.896;2022-11-04T09:53:51;12.50;99.90
12811;DHT22;6470;47.654;7.896;2022-11-04T09:58:50;15.00;99.90
12811;DHT22;6470;47.654;7.896;2022-11-04T10:01:27;12.70;99.90
12811;DHT22;6470;47.654;7.896;2022-11-04T10:04:14;12.50;99.90
12811;DHT22;6470;47.654;7.896;2022-11-04T10:15:12;10.20;99.90
12811;DHT22;6470;47.654;7.896;2022-11-04T10:23:42;11.70;99.90
12811;DHT22;6470;47.654;7.896;2022-11-04T10:26:22;10.30;99.90
12811;DHT22;6470;47.654;7.896;2022-11-04T10:28:56;11.70;99.90
12811;DHT22;6470;47.654;7.896;2022-11-04T10:31:23;15.10;99.90
12811;DHT22;6470;47.654;7.896;2022-11-04T10:34:12;12.60;99.90
12811;DHT22;6470;47.654;7.896;2022-11-04T10:36:40;11.80;99.90
12811;DHT22;6470;47.654;7.896;2022-11-04T10:39:19;12.00;99.90
12811;DHT22;6470;47.654;7.896;2022-11-04T10:41:47;15.20;99.90
12811;DHT22;6470;47.654;7.896;2022-11-04T10:52:21;15.40;99.90
12811;DHT22;6470;47.654;7.896;2022-11-04T10:54:47;11.60;99.90
12811;DHT22;6470;47.654;7.896;2022-11-04T10:57:25;15.30;99.90
12811;DHT22;6470;47.654;7.896;2022-11-04T11:00:03;14.80;99.90
12811;DHT22;6470;47.654;7.896;2022-11-04T11:07:47;14.80;99.90
12811;DHT22;6470;47.654;7.896;2022-11-04T11:10:20;12.40;99.90
12811;DHT22;6470;47.654;7.896;2022-11-04T11:13:08;12.00;99.90
12811;DHT22;6470;47.654;7.896;2022-11-04T11:15:48;12.50;99.90
12811;DHT22;6470;47.654;7.896;2022-11-04T11:18:17;12.50;99.90
12811;DHT22;6470;47.654;7.896;2022-11-04T11:21:02;14.80;99.90
12811;DHT22;6470;47.654;7.896;2022-11-04T11:26:00;11.80;99.90
12811;DHT22;6470;47.654;7.896;2022-11-04T11:31:01;14.80;99.90
12811;DHT22;6470;47.654;7.896;2022-11-04T11:33:38;15.50;99.90
12811;DHT22;6470;47.654;7.896;2022-11-04T11:36:17;14.90;99.90
12811;DHT22;6470;47.654;7.896;2022-11-04T11:41:26;11.90;99.90
12811;DHT22;6470;47.654;7.896;2022-11-04T11:46:51;12.50;99.90
12811;DHT22;6470;47.654;7.896;2022-11-04T11:49:25;15.40;99.90
12811;DHT22;6470;47.654;7.896;2022-11-04T11:54:36;12.00;99.90
12811;DHT22;6470;47.654;7.896;2022-11-04T11:57:31;15.20;99.90
12811;DHT22;6470;47.654;7.896;2022-11-04T12:00:03;9.80;99.90
12811;DHT22;6470;47.654;7.896;2022-11-04T12:05:46;15.20;99.90
12811;DHT22;6470;47.654;7.896;2022-11-04T12:11:17;15.20;99.90
12811;DHT22;6470;47.654;7.896;2022-11-04T12:13:52;15.50;99.90
12811;DHT22;6470;47.654;7.896;2022-11-04T12:27:40;15.10;99.90
12811;DHT22;6470;47.654;7.896;2022-11-04T12:30:14;10.30;99.90
12811;DHT22;6470;47.654;7.896;2022-11-04T12:41:08;12.20;99.90
12811;DHT22;6470;47.654;7.896;2022-11-04T12:44:04;14.90;99.90
12811;DHT22;6470;47.654;7.896;2022-11-04T13:00:38;14.70;99.90
12811;DHT22;6470;47.654;7.896;2022-11-04T13:06:05;12.30;99.90
12811;DHT22;6470;47.654;7.896;2022-11-04T13:11:35;15.30;99.90
12811;DHT22;6470;47.654;7.896;2022-11-04T13:14:23;15.50;99.90
12811;DHT22;6470;47.654;7.896;2022-11-04T13:16:59;14.90;99.90
12811;DHT22;6470;47.654;7.896;2022-11-04T13:19:39;12.20;99.90
12811;DHT22;6470;47.654;7.896;2022-11-04T13:22:12;15.40;99.90
12811;DHT22;6470;47.654;7.896;2022-11-04T13:24:59;15.10;99.90
12811;DHT22;6470;47.654;7.896;2022-11-04T13:27:35;15.60;99.90
12811;DHT22;6470;47.654;7.896;2022-11-04T13:30:17;12.40;99.90
12811;DHT22;6470;47.654;7.896;2022-11-04T13:38:10;15.10;99.90
12811;DHT22;6470;47.654;7.896;2022-11-04T13:43:38;10.50;99.90
12811;DHT22;6470;47.654;7.896;2022-11-04T13:49:15;12.10;99.90
12811;DHT22;6470;47.654;7.896;2022-11-04T13:52:03;14.90;99.90
12811;DHT22;6470;47.654;7.896;2022-11-04T13:57:21;12.50;99.90
12811;DHT22;6470;47.654;7.896;2022-11-04T14:02:41;12.30;99.90
12811;DHT22;6470;47.654;7.896;2022-11-04T14:18:44;12.60;99.90
12811;DHT22;6470;47.654;7.896;2022-11-04T14:21:17;12.50;99.90
12811;DHT22;6470;47.654;7.896;2022-11-04T14:23:46;11.30;99.90
12811;DHT22;6470;47.654;7.896;2022-11-04T14:26:14;12.40;99.90
12811;DHT22;6470;47.654;7.896;2022-11-04T14:28:43;12.40;99.90
12811;DHT22;6470;47.654;7.896;2022-11-04T14:31:11;12.50;99.90
12811;DHT22;6470;47.654;7.896;2022-11-04T14:33:54;12.20;99.90
12811;DHT22;6470;47.654;7.896;2022-11-04T14:44:45;12.30;99.90
12811;DHT22;6470;47.654;7.896;2022-11-04T14:47:17;11.10;99.90
12811;DHT22;6470;47.654;7.896;2022-11-04T14:57:41;10.60;99.90
12811;DHT22;6470;47.654;7.896;2022-11-04T15:03:22;10.00;99.90
12811;DHT22;6470;47.654;7.896;2022-11-04T15:05:58;12.60;99.90
12811;DHT22;6470;47.654;7.896;2022-11-04T15:08:34;11.80;99.90
12811;DHT22;6470;47.654;7.896;2022-11-04T15:11:03;12.40;99.90
12811;DHT22;6470;47.654;7.896;2022-11-04T15:13:32;12.30;99.90
12811;DHT22;6470;47.654;7.896;2022-11-04T15:15:58;12.10;99.90
12811;DHT22;6470;47.654;7.896;2022-11-04T15:18:26;9.80;99.90
12811;DHT22;6470;47.654;7.896;2022-11-04T15:21:03;9.60;99.90
12811;DHT22;6470;47.654;7.896;2022-11-04T15:26:13;12.30;99.90
12811;DHT22;6470;47.654;7.896;2022-11-04T15:28:46;10.30;99.90
12811;DHT22;6470;47.654;7.896;2022-11-04T15:31:17;10.40;99.90
12811;DHT22;6470;47.654;7.896;2022-11-04T15:33:50;10.00;99.90
12811;DHT22;6470;47.654;7.896;2022-11-04T15:36:26;9.60;99.90
12811;DHT22;6470;47.654;7.896;2022-11-04T15:39:07;10.30;99.90
12811;DHT22;6470;47.654;7.896;2022-11-04T15:41:37;10.60;99.90
12811;DHT22;6470;47.654;7.896;2022-11-04T15:44:27;9.80;99.90
12811;DHT22;6470;47.654;7.896;2022-11-04T15:46:56;10.00;99.90
12811;DHT22;6470;47.654;7.896;2022-11-04T15:49:30;9.70;99.90
12811;DHT22;6470;47.654;7.896;2022-11-04T15:52:04;10.50;99.90
12811;DHT22;6470;47.654;7.896;2022-11-04T15:54:35;10.00;99.90
12811;DHT22;6470;47.654;7.896;2022-11-04T15:57:15;10.00;99.90
12811;DHT22;6470;47.654;7.896;2022-11-04T16:00:04;9.70;99.90
12811;DHT22;6470;47.654;7.896;2022-11-04T16:02:33;9.90;99.90
12811;DHT22;6470;47.654;7.896;2022-11-04T16:07:33;8.90;99.90
12811;DHT22;6470;47.654;7.896;2022-11-04T16:10:00;10.00;99.90
12811;DHT22;6470;47.654;7.896;2022-11-04T16:12:28;10.40;99.90
12811;DHT22;6470;47.654;7.896;2022-11-04T16:14:58;9.80;99.90
12811;DHT22;6470;47.654;7.896;2022-11-04T16:17:25;9.50;99.90
12811;DHT22;6470;47.654;7.896;2022-11-04T16:20:03;10.40;99.90
12811;DHT22;6470;47.654;7.896;2022-11-04T16:22:33;9.70;99.90
12811;DHT22;6470;47.654;7.896;2022-11-04T16:25:04;9.70;99.90
12811;DHT22;6470;47.654;7.896;2022-11-04T16:27:33;9.70;99.90
12811;DHT22;6470;47.654;7.896;2022-11-04T16:30:17;9.60;99.90
12811;DHT22;6470;47.654;7.896;2022-11-04T16:32:53;9.20;99.90
12811;DHT22;6470;47.654;7.896;2022-11-04T16:35:20;9.60;99.90
12811;DHT22;6470;47.654;7.896;2022-11-04T16:37:47;9.40;99.90
12811;DHT22;6470;47.654;7.896;2022-11-04T16:40:13;9.70;99.90
12811;DHT22;6470;47.654;7.896;2022-11-04T16:45:07;9.70;99.90
12811;DHT22;6470;47.654;7.896;2022-11-04T16:47:37;9.70;99.90
12811;DHT22;6470;47.654;7.896;2022-11-04T16:50:13;9.40;99.90
12811;DHT22;6470;47.654;7.896;2022-11-04T16:55:07;9.50;99.90
12811;DHT22;6470;47.654;7.896;2022-11-04T16:57:33;9.00;99.90
12811;DHT22;6470;47.654;7.896;2022-11-04T16:59:59;9.30;99.90
12811;DHT22;6470;47.654;7.896;2022-11-04T17:02:29;9.30;99.90
12811;DHT22;6470;47.654;7.896;2022-11-04T17:04:56;9.10;99.90
12811;DHT22;6470;47.654;7.896;2022-11-04T17:07:22;9.00;99.90
12811;DHT22;6470;47.654;7.896;2022-11-04T17:12:14;9.20;99.90
12811;DHT22;6470;47.654;7.896;2022-11-04T17:14:40;9.00;99.90
12811;DHT22;6470;47.654;7.896;2022-11-04T17:17:06;9.00;99.90
12811;DHT22;6470;47.654;7.896;2022-11-04T17:19:32;8.60;99.90
12811;DHT22;6470;47.654;7.896;2022-11-04T17:21:59;9.40;99.90
12811;DHT22;6470;47.654;7.896;2022-11-04T17:26:53;9.50;99.90
12811;DHT22;6470;47.654;7.896;2022-11-04T17:29:19;9.40;99.90
12811;DHT22;6470;47.654;7.896;2022-11-04T17:31:45;9.70;99.90
12811;DHT22;6470;47.654;7.896;2022-11-04T17:34:10;9.10;99.90
12811;DHT22;6470;47.654;7.896;2022-11-04T17:36:36;8.50;99.90
12811;DHT22;6470;47.654;7.896;2022-11-04T17:39:02;9.30;99.90
12811;DHT22;6470;47.654;7.896;2022-11-04T17:41:28;9.40;99.90
12811;DHT22;6470;47.654;7.896;2022-11-04T17:44:12;8.50;99.90
12811;DHT22;6470;47.654;7.896;2022-11-04T17:46:38;8.60;99.90
12811;DHT22;6470;47.654;7.896;2022-11-04T17:51:43;9.50;99.90
12811;DHT22;6470;47.654;7.896;2022-11-04T17:54:09;9.30;99.90
12811;DHT22;6470;47.654;7.896;2022-11-04T17:56:36;9.10;99.90
12811;DHT22;6470;47.654;7.896;2022-11-04T17:59:03;9.20;99.90
12811;DHT22;6470;47.654;7.896;2022-11-04T18:01:30;9.20;99.90
12811;DHT22;6470;47.654;7.896;2022-11-04T18:03:56;9.00;99.90
12811;DHT22;6470;47.654;7.896;2022-11-04T18:06:23;9.00;99.90
12811;DHT22;6470;47.654;7.896;2022-11-04T18:08:54;9.60;99.90
12811;DHT22;6470;47.654;7.896;2022-11-04T18:11:21;9.60;99.90
12811;DHT22;6470;47.654;7.896;2022-11-04T18:14:06;9.90;99.90
12811;DHT22;6470;47.654;7.896;2022-11-04T18:16:31;9.20;99.90
12811;DHT22;6470;47.654;7.896;2022-11-04T18:18:58;10.50;99.90
12811;DHT22;6470;47.654;7.896;2022-11-04T18:21:25;9.50;99.90
12811;DHT22;6470;47.654;7.896;2022-11-04T18:23:50;8.40;99.90
12811;DHT22;6470;47.654;7.896;2022-11-04T18:26:16;8.70;99.90
12811;DHT22;6470;47.654;7.896;2022-11-04T18:28:43;9.30;99.90
12811;DHT22;6470;47.654;7.896;2022-11-04T18:31:11;9.10;99.90
12811;DHT22;6470;47.654;7.896;2022-11-04T18:36:07;8.30;99.90
12811;DHT22;6470;47.654;7.896;2022-11-04T18:48:19;9.40;99.90
12811;DHT22;6470;47.654;7.896;2022-11-04T18:50:45;9.30;99.90
12811;DHT22;6470;47.654;7.896;2022-11-04T18:55:37;9.20;99.90
12811;DHT22;6470;47.654;7.896;2022-11-04T19:00:28;9.50;99.90
12811;DHT22;6470;47.654;7.896;2022-11-04T19:02:55;9.50;99.90
12811;DHT22;6470;47.654;7.896;2022-11-04T19:05:21;7.00;99.90
12811;DHT22;6470;47.654;7.896;2022-11-04T19:07:47;9.70;99.90
12811;DHT22;6470;47.654;7.896;2022-11-04T19:10:13;9.00;99.90
12811;DHT22;6470;47.654;7.896;2022-11-04T19:12:39;8.60;99.90
12811;DHT22;6470;47.654;7.896;2022-11-04T19:15:23;9.10;99.90
12811;DHT22;6470;47.654;7.896;2022-11-04T19:17:49;8.40;99.90
12811;DHT22;6470;47.654;7.896;2022-11-04T19:20:15;8.70;99.90
12811;DHT22;6470;47.654;7.896;2022-11-04T19:22:41;9.30;99.90
12811;DHT22;6470;47.654;7.896;2022-11-04T19:25:08;8.50;99.90
12811;DHT22;6470;47.654;7.896;2022-11-04T19:27:34;8.50;99.90
12811;DHT22;6470;47.654;7.896;2022-11-04T19:32:26;8.30;99.90
12811;DHT22;6470;47.654;7.896;2022-11-04T19:34:52;7.50;99.90
12811;DHT22;6470;47.654;7.896;2022-11-04T19:37:17;7.80;99.90
12811;DHT22;6470;47.654;7.896;2022-11-04T19:39:43;8.70;99.90
12811;DHT22;6470;47.654;7.896;2022-11-04T19:42:10;7.70;99.90
12811;DHT22;6470;47.654;7.896;2022-11-04T19:44:55;8.40;99.90
12811;DHT22;6470;47.654;7.896;2022-11-04T19:47:21;8.30;99.90
12811;DHT22;6470;47.654;7.896;2022-11-04T19:49:46;8.00;99.90
12811;DHT22;6470;47.654;7.896;2022-11-04T19:52:12;7.80;99.90
12811;DHT22;6470;47.654;7.896;2022-11-04T19:54:39;8.00;99.90
12811;DHT22;6470;47.654;7.896;2022-11-04T19:59:31;7.90;99.90
12811;DHT22;6470;47.654;7.896;2022-11-04T20:01:57;8.10;99.90
12811;DHT22;6470;47.654;7.896;2022-11-04T20:04:23;8.60;99.90
12811;DHT22;6470;47.654;7.896;2022-11-04T20:06:49;8.50;99.90
12811;DHT22;6470;47.654;7.896;2022-11-04T20:09:14;7.80;99.90
12811;DHT22;6470;47.654;7.896;2022-11-04T20:11:40;8.00;99.90
12811;DHT22;6470;47.654;7.896;2022-11-04T20:14:26;8.30;99.90
12811;DHT22;6470;47.654;7.896;2022-11-04T20:16:52;8.50;99.90
12811;DHT22;6470;47.654;7.896;2022-11-04T20:19:18;8.20;99.90
12811;DHT22;6470;47.654;7.896;2022-11-04T20:21:44;7.80;99.90
12811;DHT22;6470;47.654;7.896;2022-11-04T20:24:11;8.20;99.90
12811;DHT22;6470;47.654;7.896;2022-11-04T20:26:39;7.60;99.90
12811;DHT22;6470;47.654;7.896;2022-11-04T20:29:08;8.00;99.90
12811;DHT22;6470;47.654;7.896;2022-11-04T20:31:36;8.30;99.90
12811;DHT22;6470;47.654;7.896;2022-11-04T20:34:05;8.20;99.90
12811;DHT22;6470;47.654;7.896;2022-11-04T20:36:32;8.20;99.90
12811;DHT22;6470;47.654;7.896;2022-11-04T20:39:08;4.90;99.90
12811;DHT22;6470;47.654;7.896;2022-11-04T20:41:34;8.10;99.90
12811;DHT22;6470;47.654;7.896;2022-11-04T20:44:00;8.00;99.90
12811;DHT22;6470;47.654;7.896;2022-11-04T20:46:28;8.20;99.90
12811;DHT22;6470;47.654;7.896;2022-11-04T20:48:56;8.10;99.90
12811;DHT22;6470;47.654;7.896;2022-11-04T20:51:27;8.20;99.90
12811;DHT22;6470;47.654;7.896;2022-11-04T20:53:54;8.00;99.90
12811;DHT22;6470;47.654;7.896;2022-11-04T20:56:23;5.20;99.90